Siloam Springs, AR

08:02 CDT je la 26an de aprilo 2018 (GMT -0500)
JoyceHome | | Change Station

Elev 1158 ft 36.18 °N, 94.55 °W | Updated 8 seconds ago

Overcast
Nuboplena
50.4 °F
Sentas kiel 50.4 °F
N
0.7
Vento Varianta Vento from Nordo
Gusts 3.1 mej/h

hodiaŭ
High -- | Low -- °F
--% Ebla precip.
hieraŭ
High -- | Low -- °F
Precip. -- co
Aerpremo 30.01 co
Vidodistanco 10.0 mejloj
Nuboj Nuboplena 900 ft
Rosopunkto 50 °F
Humido 99%
Pluvokvanto 0.00 co
Neĝprofundo Not available.
6:30 AM 8:01 PM
Kreskanta Lunĝibo, 87% visible
METAR KSLG 261256Z AUTO 36008KT 10SM OVC009 10/08 A3001 RMK AO2 CIG 007V012 SLP162 T01000083
Aerpremo 30.01 co
Vidodistanco 10.0 mejloj
Nuboj Nuboplena 900 ft
Rosopunkto 50 °F
Humido 99%
Pluvokvanto 0.00 co
Neĝprofundo Not available.
6:30 AM 8:01 PM
Kreskanta Lunĝibo, 87% visible
METAR KSLG 261256Z AUTO 36008KT 10SM OVC009 10/08 A3001 RMK AO2 CIG 007V012 SLP162 T01000083

Get Severe Weather Alerts

Thanks for signing up!

Be on the lookout for a verification email in your inbox.

You'll start receiving the daily forecast at 6 AM.

×

10-Day Weather Forecast

Almanac

Astronomio

Apr. 26, 2018 Leviĝo Subiro
Aktuala tempo
Civila krepusko
Naŭtika krepusko
Astronomia krepusko
Luno
Daŭro de videbla lumo
Daŭro de tago
Tomorrow will be .
, % of the Moon is Illuminated

Hodiaŭaj ekstremaĵoj

State Highs State Lows

Community

WunderPhotos

Category 6

Welcome to Category 6. This is the collective home for Weather Underground's featured writeups by Dr. Jeff Masters (right), Bob Henson (left), Chris Burt, and other regular contributors.

Nearby

Aerkvalito

  Aerkvalito Aerkvalita indico Poluanto
Not available.

Neĝa profundeco

Station Depth Alteco

Earthquake Activity

Urbo Distance Mag. Time & Date
Minimum magnitude displayed is 2.5.

Coastal Water Temperatures

Loko Temperaturo

Stations

Najbaraj veter-stacioj

Loko de stacio Temp Venta
kvazaŭtemperaturo
Rosopunkto Humido Vento Precip. Elev Ĝisdatigita je Tipo
                   

Watches & Warnings

There are currently no watches in effect.